createdAt,value
2018-07-21T00:00:14.147Z,5.03
2018-07-21T00:02:42.130Z,14.13
2018-07-21T00:05:10.141Z,5.47
2018-07-21T00:07:38.122Z,5.47
2018-07-21T00:10:06.251Z,5.33
2018-07-21T00:12:34.230Z,6.67
2018-07-21T00:15:02.214Z,7.03
2018-07-21T00:17:30.210Z,5.57
2018-07-21T00:19:58.212Z,6.93
2018-07-21T00:22:26.219Z,8.40
2018-07-21T00:24:54.210Z,5.50
2018-07-21T00:27:22.209Z,7.77
2018-07-21T00:29:50.195Z,5.50
2018-07-21T00:32:18.182Z,6.00
2018-07-21T00:34:46.165Z,5.47
2018-07-21T00:37:14.171Z,4.70
2018-07-21T00:39:42.170Z,5.23
2018-07-21T00:42:10.159Z,4.37
2018-07-21T00:44:38.166Z,5.43
2018-07-21T00:47:06.165Z,4.30
2018-07-21T00:49:34.146Z,6.07
2018-07-21T00:52:02.130Z,4.03
2018-07-21T00:54:30.109Z,5.63
2018-07-21T00:56:58.106Z,4.20
2018-07-21T00:59:26.111Z,5.30
2018-07-21T01:01:54.109Z,10.97
2018-07-21T01:04:22.141Z,4.53
2018-07-21T01:06:50.141Z,7.93
2018-07-21T01:09:18.121Z,4.70
2018-07-21T01:11:46.123Z,4.80
2018-07-21T01:14:14.111Z,4.13
2018-07-21T01:16:42.095Z,4.93
2018-07-21T01:19:10.089Z,4.30
2018-07-21T01:21:38.083Z,4.50
2018-07-21T01:24:06.075Z,4.67
2018-07-21T01:26:34.078Z,6.30
2018-07-21T01:29:02.078Z,4.73
2018-07-21T01:31:30.058Z,4.80
2018-07-21T01:33:58.049Z,4.37
2018-07-21T01:36:26.055Z,4.00
2018-07-21T01:38:54.054Z,7.57
2018-07-21T01:41:22.042Z,6.30
2018-07-21T01:43:50.035Z,5.40
2018-07-21T01:46:18.026Z,5.03
2018-07-21T01:48:46.017Z,6.07
2018-07-21T01:51:14.027Z,7.70
2018-07-21T01:53:42.027Z,5.77
2018-07-21T01:56:10.027Z,4.90
2018-07-21T01:58:38.042Z,6.17
2018-07-21T02:01:06.333Z,5.60
2018-07-21T02:03:34.358Z,10.03
2018-07-21T02:06:02.378Z,5.00
2018-07-21T02:08:30.417Z,5.07
2018-07-21T02:10:58.414Z,5.53
2018-07-21T02:13:26.423Z,4.30
2018-07-21T02:15:54.414Z,6.13
2018-07-21T02:18:22.418Z,4.07
2018-07-21T02:20:50.422Z,3.77
2018-07-21T02:23:18.438Z,5.00
2018-07-21T02:25:46.437Z,5.23
2018-07-21T02:28:14.442Z,4.53
2018-07-21T02:30:42.426Z,7.50
2018-07-21T02:33:10.431Z,4.60
2018-07-21T02:35:38.413Z,4.50
2018-07-21T02:38:06.406Z,3.87
2018-07-21T02:40:34.394Z,3.87
2018-07-21T02:43:02.409Z,4.63
2018-07-21T02:45:30.438Z,5.50
2018-07-21T02:47:58.430Z,4.27
2018-07-21T02:50:26.412Z,4.40
2018-07-21T02:52:54.406Z,5.50
2018-07-21T02:55:22.429Z,3.93
2018-07-21T02:57:50.469Z,4.13
2018-07-21T03:00:18.488Z,4.43
2018-07-21T03:02:46.478Z,3.97
2018-07-21T03:05:14.491Z,9.57
2018-07-21T03:07:42.519Z,3.93
2018-07-21T03:10:10.602Z,5.53
2018-07-21T03:12:38.603Z,12.07
2018-07-21T03:15:06.611Z,5.63
2018-07-21T03:17:34.615Z,3.40
2018-07-21T03:20:02.660Z,4.70
2018-07-21T03:22:30.689Z,6.00
2018-07-21T03:24:58.678Z,3.70
2018-07-21T03:27:26.708Z,5.27
2018-07-21T03:29:54.711Z,3.93
2018-07-21T03:32:22.747Z,3.70
2018-07-21T03:34:50.781Z,4.60
2018-07-21T03:37:18.787Z,3.90
2018-07-21T03:39:46.786Z,3.80
2018-07-21T03:42:14.795Z,4.83
2018-07-21T03:44:42.815Z,4.50
2018-07-21T03:47:10.799Z,4.03
2018-07-21T03:49:38.835Z,4.00
2018-07-21T03:52:06.830Z,4.37
2018-07-21T03:54:34.854Z,4.27
2018-07-21T03:57:02.884Z,8.13
2018-07-21T03:59:30.883Z,3.97
2018-07-21T04:01:58.898Z,5.30
2018-07-21T04:04:26.932Z,7.33
2018-07-21T04:06:54.943Z,5.37
2018-07-21T04:09:22.963Z,5.17
2018-07-21T04:11:50.990Z,5.17
2018-07-21T04:14:18.991Z,4.23
2018-07-21T04:16:47.012Z,4.37
2018-07-21T04:19:15.049Z,7.10
2018-07-21T04:21:43.077Z,8.40
2018-07-21T04:24:11.142Z,5.57
2018-07-21T04:26:39.078Z,4.83
2018-07-21T04:29:07.137Z,4.40
2018-07-21T04:31:35.118Z,7.40
2018-07-21T04:34:03.127Z,5.13
2018-07-21T04:36:31.148Z,4.70
2018-07-21T04:38:59.151Z,5.90
2018-07-21T04:41:27.220Z,6.13
2018-07-21T04:43:55.219Z,4.90
2018-07-21T04:46:23.261Z,4.77
2018-07-21T04:48:51.288Z,4.60
2018-07-21T04:51:19.314Z,5.40
2018-07-21T04:53:47.315Z,6.60
2018-07-21T04:56:15.307Z,4.90
2018-07-21T04:58:43.319Z,7.40
2018-07-21T05:01:11.341Z,6.90
2018-07-21T05:03:39.413Z,5.53
2018-07-21T05:06:07.497Z,7.03
2018-07-21T05:08:35.568Z,7.23
2018-07-21T05:11:03.593Z,5.80
2018-07-21T05:13:31.600Z,8.47
2018-07-21T05:15:59.615Z,6.23
2018-07-21T05:18:27.615Z,5.93
2018-07-21T05:20:55.611Z,5.37
2018-07-21T05:23:23.607Z,6.17
2018-07-21T05:25:51.616Z,5.93
2018-07-21T05:28:19.614Z,6.50
2018-07-21T05:30:47.690Z,6.90
2018-07-21T05:33:15.741Z,6.10
2018-07-21T05:35:43.738Z,7.70
2018-07-21T05:38:11.735Z,5.20
2018-07-21T05:40:39.821Z,10.43
2018-07-21T05:43:07.853Z,7.30
2018-07-21T05:45:35.850Z,5.10
2018-07-21T05:48:03.851Z,6.30
2018-07-21T05:50:31.855Z,5.80
2018-07-21T05:52:59.875Z,7.10
2018-07-21T05:55:27.884Z,8.97
2018-07-21T05:57:56.011Z,7.10
2018-07-21T06:00:24.023Z,8.53
2018-07-21T06:02:52.216Z,4.80
2018-07-21T06:05:20.125Z,4.40
2018-07-21T06:07:48.209Z,8.03
2018-07-21T06:10:16.269Z,6.07
2018-07-21T06:12:44.263Z,5.47
2018-07-21T06:15:12.309Z,5.60
2018-07-21T06:17:40.315Z,6.73
2018-07-21T06:20:08.311Z,6.17
2018-07-21T06:22:36.357Z,6.00
2018-07-21T06:25:04.485Z,4.27
2018-07-21T06:27:32.525Z,6.53
2018-07-21T06:30:00.683Z,8.50
2018-07-21T06:32:28.685Z,5.20
2018-07-21T06:34:56.703Z,5.83
2018-07-21T06:37:24.694Z,6.83
2018-07-21T06:39:52.692Z,7.07
2018-07-21T06:42:20.687Z,5.23
2018-07-21T06:44:48.692Z,4.73
2018-07-21T06:47:16.714Z,5.90
2018-07-21T06:49:44.706Z,4.13
2018-07-21T06:52:12.737Z,5.83
2018-07-21T06:54:40.797Z,4.87
2018-07-21T06:57:09.150Z,3.93
2018-07-21T06:59:38.375Z,5.07
2018-07-21T07:02:06.443Z,3.73
2018-07-21T07:04:34.660Z,3.70
2018-07-21T07:07:02.736Z,5.37
2018-07-21T07:09:30.856Z,3.70
2018-07-21T07:11:58.973Z,3.90
2018-07-21T07:14:27.051Z,3.23
2018-07-21T07:16:55.269Z,3.93
2018-07-21T07:19:39.284Z,4.20
2018-07-21T07:22:07.499Z,3.93
2018-07-21T07:24:35.604Z,6.70
2018-07-21T07:27:03.727Z,3.83
2018-07-21T07:29:31.748Z,3.90
2018-07-21T07:31:59.911Z,3.73
2018-07-21T07:34:28.068Z,3.77
2018-07-21T07:36:56.100Z,3.13
2018-07-21T07:39:24.185Z,4.73
2018-07-21T07:41:52.242Z,3.17
2018-07-21T07:44:20.402Z,4.90
2018-07-21T07:46:48.644Z,3.97
2018-07-21T07:49:16.747Z,3.13
2018-07-21T07:51:45.191Z,2.63
2018-07-21T07:54:13.275Z,2.00
2018-07-21T07:56:41.369Z,2.50
2018-07-21T07:59:09.517Z,2.40
2018-07-21T08:01:37.749Z,3.10
2018-07-21T08:04:05.891Z,2.83
2018-07-21T08:06:33.976Z,3.13
2018-07-21T08:09:02.105Z,2.50
2018-07-21T08:11:30.462Z,4.73
2018-07-21T08:13:58.486Z,2.80
2018-07-21T08:16:26.511Z,4.43
2018-07-21T08:18:54.530Z,2.63
2018-07-21T08:21:22.661Z,2.90
2018-07-21T08:23:52.773Z,3.17
2018-07-21T08:26:20.829Z,4.60
2018-07-21T08:28:48.971Z,2.67
2018-07-21T08:31:17.152Z,2.00
2018-07-21T08:33:45.395Z,3.00
2018-07-21T08:36:13.458Z,2.60
2018-07-21T08:38:41.536Z,2.60
2018-07-21T08:41:09.592Z,2.57
2018-07-21T08:43:37.611Z,3.47
2018-07-21T08:46:05.681Z,2.77
2018-07-21T08:48:33.764Z,2.77
2018-07-21T08:51:01.961Z,2.37
2018-07-21T08:53:30.047Z,2.60
2018-07-21T08:55:58.106Z,3.40
2018-07-21T08:58:26.116Z,2.60
2018-07-21T09:00:54.172Z,2.47
2018-07-21T09:03:22.248Z,2.30
2018-07-21T09:05:50.274Z,2.60
2018-07-21T09:08:18.345Z,6.23
2018-07-21T09:10:46.367Z,4.30
2018-07-21T09:13:14.476Z,5.43
2018-07-21T09:15:42.427Z,3.73
2018-07-21T09:18:10.574Z,2.87
2018-07-21T09:20:40.671Z,2.63
2018-07-21T09:23:08.746Z,2.93
2018-07-21T09:25:36.761Z,3.27
2018-07-21T09:28:04.802Z,3.00
2018-07-21T09:30:32.807Z,5.30
2018-07-21T09:33:00.819Z,3.70
2018-07-21T09:35:28.887Z,4.00
2018-07-21T09:37:56.973Z,3.60
2018-07-21T09:40:24.984Z,4.70
2018-07-21T09:42:53.390Z,3.83
2018-07-21T09:45:21.412Z,4.10
2018-07-21T09:47:49.490Z,4.10
2018-07-21T09:50:17.516Z,5.43
2018-07-21T09:52:45.547Z,4.57
2018-07-21T09:55:13.585Z,5.87
2018-07-21T09:57:41.620Z,4.80
2018-07-21T10:00:10.924Z,3.27
2018-07-21T10:02:38.961Z,5.80
2018-07-21T10:05:06.965Z,4.53
2018-07-21T10:07:35.029Z,5.40
2018-07-21T10:10:03.086Z,3.50
2018-07-21T10:12:31.112Z,5.00
2018-07-21T10:14:59.186Z,9.03
2018-07-21T10:17:27.240Z,11.87
2018-07-21T10:19:55.249Z,3.00
2018-07-21T10:22:23.379Z,3.77
2018-07-21T10:24:56.729Z,5.43
2018-07-21T10:27:29.065Z,2.97
2018-07-21T10:29:57.076Z,4.90
2018-07-21T10:32:25.112Z,4.77
2018-07-21T10:34:53.136Z,4.13
2018-07-21T10:37:21.172Z,4.90
2018-07-21T10:39:49.272Z,5.37
2018-07-21T10:42:17.444Z,3.70
2018-07-21T10:44:45.526Z,3.43
2018-07-21T10:47:14.413Z,5.30
2018-07-21T10:49:42.477Z,3.50
2018-07-21T10:52:10.517Z,2.87
2018-07-21T10:54:38.587Z,3.10
2018-07-21T10:57:06.626Z,4.10
2018-07-21T10:59:34.666Z,3.70
2018-07-21T11:02:02.692Z,2.83
2018-07-21T11:04:30.808Z,5.17
2018-07-21T11:06:58.885Z,3.67
2018-07-21T11:09:26.935Z,2.60
2018-07-21T11:11:55.003Z,4.33
2018-07-21T11:14:23.108Z,3.30
2018-07-21T11:16:51.206Z,3.27
2018-07-21T11:19:20.282Z,4.53
2018-07-21T11:21:48.592Z,2.60
2018-07-21T11:24:16.669Z,2.93
2018-07-21T11:26:44.895Z,3.50
2018-07-21T11:29:13.032Z,4.40
2018-07-21T11:31:41.216Z,2.70
2018-07-21T11:34:09.282Z,2.20
2018-07-21T11:36:37.342Z,2.97
2018-07-21T11:39:05.764Z,2.67
2018-07-21T11:41:33.846Z,3.27
2018-07-21T11:44:01.965Z,4.53
2018-07-21T11:46:30.034Z,2.40
2018-07-21T11:48:58.098Z,3.47
2018-07-21T11:51:26.267Z,4.43
2018-07-21T11:53:54.463Z,2.70
2018-07-21T11:56:22.499Z,3.97
2018-07-21T11:58:50.625Z,2.60
2018-07-21T12:01:18.743Z,3.20
2018-07-21T12:03:46.811Z,6.17
2018-07-21T12:06:14.864Z,3.50
2018-07-21T12:08:42.946Z,3.93
2018-07-21T12:11:11.026Z,3.37
2018-07-21T12:13:39.422Z,2.87
2018-07-21T12:16:07.374Z,3.00
2018-07-21T12:18:35.491Z,5.10
2018-07-21T12:21:03.619Z,3.33
2018-07-21T12:23:31.755Z,3.00
2018-07-21T12:25:59.861Z,2.80
2018-07-21T12:28:27.892Z,3.73
2018-07-21T12:30:55.993Z,4.83
2018-07-21T12:33:24.022Z,3.10
2018-07-21T12:35:52.096Z,3.83
2018-07-21T12:38:20.120Z,3.53
2018-07-21T12:40:48.187Z,3.20
2018-07-21T12:43:16.204Z,5.23
2018-07-21T12:45:44.232Z,4.00
2018-07-21T12:48:12.263Z,3.90
2018-07-21T12:50:40.405Z,5.10
2018-07-21T12:53:09.440Z,3.20
2018-07-21T12:55:37.478Z,3.80
2018-07-21T12:58:05.544Z,3.50
2018-07-21T13:00:33.632Z,2.83
2018-07-21T13:03:01.668Z,11.27
2018-07-21T13:05:29.712Z,3.60
2018-07-21T13:07:57.760Z,3.47
2018-07-21T13:10:25.771Z,4.57
2018-07-21T13:12:53.789Z,4.17
2018-07-21T13:15:21.804Z,4.57
2018-07-21T13:17:50.514Z,4.57
2018-07-21T13:20:19.595Z,6.03
2018-07-21T13:22:47.806Z,4.17
2018-07-21T13:25:15.916Z,3.87
2018-07-21T13:27:43.987Z,5.13
2018-07-21T13:30:12.055Z,3.80
2018-07-21T13:32:40.171Z,3.50
2018-07-21T13:35:08.885Z,5.30
2018-07-21T13:37:36.926Z,4.33
2018-07-21T13:40:14.601Z,3.20
2018-07-21T13:42:42.688Z,4.23
2018-07-21T13:45:10.760Z,5.30
2018-07-21T13:47:39.174Z,3.70
2018-07-21T13:50:07.296Z,4.07
2018-07-21T13:52:35.302Z,6.93
2018-07-21T13:55:03.400Z,3.57
2018-07-21T13:57:31.355Z,3.80
2018-07-21T13:59:59.372Z,7.30
2018-07-21T14:02:27.450Z,3.37
2018-07-21T14:04:55.529Z,3.60
2018-07-21T14:07:23.605Z,4.20
2018-07-21T14:09:51.683Z,3.40
2018-07-21T14:12:19.713Z,4.87
2018-07-21T14:14:47.760Z,3.60
2018-07-21T14:17:15.772Z,6.30
2018-07-21T14:19:43.805Z,4.53
2018-07-21T14:22:12.957Z,5.03
2018-07-21T14:24:41.015Z,4.13
2018-07-21T14:27:09.127Z,3.50
2018-07-21T14:29:37.197Z,5.23
2018-07-21T14:32:05.219Z,4.23
2018-07-21T14:34:33.312Z,5.93
2018-07-21T14:37:01.403Z,4.77
2018-07-21T14:39:29.509Z,8.10
2018-07-21T14:41:57.739Z,3.40
2018-07-21T14:44:25.808Z,4.53
2018-07-21T14:46:54.030Z,4.00
2018-07-21T14:49:22.133Z,4.00
2018-07-21T14:51:50.799Z,3.57
2018-07-21T14:54:18.860Z,4.57
2018-07-21T14:56:46.998Z,4.40
2018-07-21T14:59:15.034Z,8.23
2018-07-21T15:01:43.065Z,4.93
2018-07-21T15:04:11.088Z,4.10
2018-07-21T15:06:39.183Z,5.00
2018-07-21T15:09:07.853Z,5.40
2018-07-21T15:11:36.308Z,5.73
2018-07-21T15:14:04.383Z,4.80
2018-07-21T15:16:32.499Z,5.50
2018-07-21T15:19:00.549Z,5.43
2018-07-21T15:21:28.728Z,5.30
2018-07-21T15:23:56.854Z,4.50
2018-07-21T15:26:24.894Z,5.00
2018-07-21T15:28:52.979Z,4.80
2018-07-21T15:31:21.223Z,4.60
2018-07-21T15:33:49.205Z,4.83
2018-07-21T15:36:17.232Z,7.50
2018-07-21T15:38:45.268Z,5.47
2018-07-21T15:41:13.536Z,5.07
2018-07-21T15:43:41.699Z,6.80
2018-07-21T15:46:09.806Z,9.00
2018-07-21T15:48:38.060Z,6.70
2018-07-21T15:51:06.273Z,7.50
2018-07-21T15:53:35.207Z,6.83
2018-07-21T15:56:03.375Z,5.60
2018-07-21T15:58:31.410Z,4.47
2018-07-21T16:00:59.482Z,3.43
2018-07-21T16:03:27.572Z,7.17
2018-07-21T16:05:55.735Z,5.00
2018-07-21T16:08:23.888Z,4.47
2018-07-21T16:10:52.094Z,3.97
2018-07-21T16:13:20.154Z,6.90
2018-07-21T16:15:48.179Z,3.47
2018-07-21T16:18:16.400Z,5.30
2018-07-21T16:20:44.441Z,4.40
2018-07-21T16:23:12.634Z,3.77
2018-07-21T16:25:40.744Z,5.07
2018-07-21T16:28:08.792Z,4.40
2018-07-21T16:30:36.911Z,4.17
2018-07-21T16:33:05.230Z,3.37
2018-07-21T16:35:33.338Z,9.10
2018-07-21T16:38:01.730Z,4.37
2018-07-21T16:40:29.885Z,8.90
2018-07-21T16:42:58.074Z,5.70
2018-07-21T16:45:26.106Z,9.90
2018-07-21T16:47:54.290Z,5.53
2018-07-21T16:50:22.530Z,6.80
2018-07-21T16:52:50.726Z,4.23
2018-07-21T16:55:18.893Z,5.23
2018-07-21T16:57:47.010Z,4.83
2018-07-21T17:00:15.102Z,5.40
2018-07-21T17:02:43.338Z,5.33
2018-07-21T17:05:11.746Z,5.13
2018-07-21T17:07:39.988Z,5.30
2018-07-21T17:10:08.248Z,5.23
2018-07-21T17:12:36.337Z,5.87
2018-07-21T17:15:04.540Z,5.00
2018-07-21T17:17:32.577Z,8.63
2018-07-21T17:20:00.818Z,5.10
2018-07-21T17:22:28.979Z,5.67
2018-07-21T17:24:57.092Z,5.87
2018-07-21T17:27:25.095Z,5.57
2018-07-21T17:29:53.303Z,5.40
2018-07-21T17:32:21.478Z,5.93
2018-07-21T17:34:49.552Z,6.20
2018-07-21T17:37:17.638Z,6.27
2018-07-21T17:39:45.776Z,6.00
2018-07-21T17:42:13.922Z,9.70
2018-07-21T17:44:42.004Z,5.60
2018-07-21T17:47:10.089Z,6.07
2018-07-21T17:49:38.139Z,7.43
2018-07-21T17:52:06.304Z,6.60
2018-07-21T17:54:34.354Z,10.00
2018-07-21T17:57:02.429Z,6.30
2018-07-21T17:59:30.636Z,4.90
2018-07-21T18:01:58.797Z,3.57
2018-07-21T18:04:26.839Z,3.23
2018-07-21T18:06:55.058Z,4.27
2018-07-21T18:09:23.319Z,2.90
2018-07-21T18:11:52.375Z,3.10
2018-07-21T18:14:20.470Z,3.20
2018-07-21T18:16:48.550Z,8.07
2018-07-21T18:19:16.631Z,4.47
2018-07-21T18:21:44.669Z,4.00
2018-07-21T18:24:12.801Z,3.30
2018-07-21T18:26:40.833Z,3.47
2018-07-21T18:29:09.042Z,3.53
2018-07-21T18:31:37.203Z,3.30
2018-07-21T18:34:05.727Z,7.13
2018-07-21T18:36:33.911Z,3.23
2018-07-21T18:39:02.020Z,3.60
2018-07-21T18:41:30.128Z,3.47
2018-07-21T18:43:58.343Z,4.17
2018-07-21T18:46:26.480Z,4.03
2018-07-21T18:48:54.601Z,9.80
2018-07-21T18:51:22.944Z,4.50
2018-07-21T18:53:51.355Z,5.57
2018-07-21T18:56:19.486Z,4.20
2018-07-21T18:58:47.722Z,5.60
2018-07-21T19:01:15.886Z,5.77
2018-07-21T19:03:44.162Z,5.30
2018-07-21T19:06:12.200Z,18.13
2018-07-21T19:08:45.733Z,4.80
2018-07-21T19:11:13.859Z,4.70
2018-07-21T19:13:42.124Z,5.50
2018-07-21T19:16:15.795Z,6.03
2018-07-21T19:18:44.215Z,5.60
2018-07-21T19:21:20.871Z,4.30
2018-07-21T19:23:49.791Z,3.93
2018-07-21T19:26:23.285Z,5.73
2018-07-21T19:28:51.773Z,8.63
2018-07-21T19:31:20.233Z,7.90
2018-07-21T19:33:48.962Z,4.90
2018-07-21T19:36:17.697Z,5.47
2018-07-21T19:38:45.989Z,4.77
2018-07-21T19:41:19.845Z,5.50
2018-07-21T19:43:47.928Z,5.73
2018-07-21T19:46:16.006Z,7.20
2018-07-21T19:48:44.878Z,5.30
2018-07-21T19:51:12.959Z,5.93
2018-07-21T19:53:41.176Z,6.10
2018-07-21T19:56:09.310Z,10.70
2018-07-21T19:58:37.504Z,7.80
2018-07-21T20:01:05.511Z,7.60
2018-07-21T20:03:33.514Z,18.10
2018-07-21T20:06:01.511Z,7.40
2018-07-21T20:08:29.553Z,11.67
2018-07-21T20:10:57.602Z,7.27
2018-07-21T20:13:25.585Z,8.00
2018-07-21T20:15:53.745Z,7.70
2018-07-21T20:18:22.007Z,7.50
2018-07-21T20:20:50.186Z,7.67
2018-07-21T20:23:18.217Z,8.30
2018-07-21T20:25:46.606Z,9.73
2018-07-21T20:28:14.687Z,6.97
2018-07-21T20:30:42.968Z,6.33
2018-07-21T20:33:11.094Z,5.57
2018-07-21T20:35:39.111Z,6.10
2018-07-21T20:38:07.337Z,6.00
2018-07-21T20:40:35.349Z,6.03
2018-07-21T20:43:03.661Z,5.67
2018-07-21T20:45:31.717Z,11.70
2018-07-21T20:47:59.917Z,7.20
2018-07-21T20:50:28.040Z,9.00
2018-07-21T20:52:56.075Z,8.90
2018-07-21T20:55:24.079Z,11.40
2018-07-21T20:57:52.202Z,8.80
2018-07-21T21:00:20.444Z,6.27
2018-07-21T21:02:48.511Z,7.73
2018-07-21T21:05:16.549Z,8.00
2018-07-21T21:07:44.584Z,8.10
2018-07-21T21:10:12.805Z,9.10
2018-07-21T21:12:40.983Z,6.43
2018-07-21T21:15:09.374Z,7.20
2018-07-21T21:17:37.412Z,8.20
2018-07-21T21:20:05.639Z,9.90
2018-07-21T21:22:33.679Z,8.57
2018-07-21T21:25:01.754Z,8.93
2018-07-21T21:27:29.754Z,9.57
2018-07-21T21:29:57.775Z,10.60
2018-07-21T21:32:25.807Z,12.33
2018-07-21T21:34:53.840Z,8.90
2018-07-21T21:37:21.870Z,13.47
2018-07-21T21:39:49.864Z,9.30
2018-07-21T21:42:18.039Z,9.00
2018-07-21T21:44:45.978Z,11.50
2018-07-21T21:47:14.021Z,11.10
2018-07-21T21:49:42.075Z,12.17
2018-07-21T21:52:10.107Z,10.97
2018-07-21T21:54:38.143Z,14.67
2018-07-21T21:57:06.124Z,14.97
2018-07-21T21:59:34.124Z,14.03
2018-07-21T22:02:02.131Z,12.97
2018-07-21T22:04:30.508Z,13.67
2018-07-21T22:06:58.447Z,22.17
2018-07-21T22:09:26.468Z,13.63
2018-07-21T22:11:54.491Z,16.80
2018-07-21T22:14:22.595Z,16.33
2018-07-21T22:16:50.628Z,16.50
2018-07-21T22:19:18.697Z,19.60
2018-07-21T22:21:46.740Z,16.10
2018-07-21T22:24:14.771Z,25.53
2018-07-21T22:26:42.833Z,17.90
2018-07-21T22:29:10.851Z,21.00
2018-07-21T22:31:38.907Z,18.20
2018-07-21T22:34:06.923Z,21.37
2018-07-21T22:36:35.009Z,20.10
2018-07-21T22:39:03.053Z,19.10
2018-07-21T22:41:31.061Z,21.77
2018-07-21T22:43:59.095Z,18.10
2018-07-21T22:46:27.098Z,24.20
2018-07-21T22:48:55.119Z,21.70
2018-07-21T22:51:24.281Z,29.30
2018-07-21T22:53:52.312Z,20.43
2018-07-21T22:56:20.349Z,22.57
2018-07-21T22:58:48.392Z,23.80
2018-07-21T23:01:16.482Z,17.50
2018-07-21T23:03:44.519Z,20.47
2018-07-21T23:06:12.522Z,17.83
2018-07-21T23:08:40.544Z,24.80
2018-07-21T23:11:08.595Z,17.17
2018-07-21T23:13:36.610Z,20.03
2018-07-21T23:16:04.620Z,17.10
2018-07-21T23:18:32.656Z,19.60
2018-07-21T23:21:00.696Z,19.30
2018-07-21T23:23:28.728Z,19.50
2018-07-21T23:25:56.749Z,20.93
2018-07-21T23:28:24.872Z,18.70
2018-07-21T23:30:52.912Z,16.73
2018-07-21T23:33:21.824Z,32.67
2018-07-21T23:35:49.857Z,22.40
2018-07-21T23:38:17.914Z,17.97
2018-07-21T23:40:45.933Z,20.50
2018-07-21T23:43:13.945Z,19.83
2018-07-21T23:45:42.000Z,17.20
2018-07-21T23:48:10.007Z,21.40
2018-07-21T23:50:38.011Z,17.07
2018-07-21T23:53:06.023Z,17.40
2018-07-21T23:55:34.061Z,19.27
2018-07-21T23:58:02.222Z,27.63
